LEZL/SVQ METAR and TAF weather

Enter ICAO airport designator
Station Type Date Time Source
LEZL METAR 2022/11/27 08:00 UTC NOAA

LEZL 270800Z 02003KT CAVOK 08/06 Q1025 NOSIG


Station Type Date Time Source
LEZL Decoded METAR 2022/11/27 08:00 UTC NOAA

Sevilla / San Pablo, Spain (LEZL) 37-25N 005-54W 31M
Nov 27, 2022 - 03:00 AM EST / 2022.11.27 0800 UTC
Wind: from the NNE (020 degrees) at 3 MPH (3 KT):0
Visibility: greater than 7 mile(s):0
Temperature: 46 F (8 C)
Dew Point: 42 F (6 C)
Relative Humidity: 87%
Pressure (altimeter): 30.27 in. Hg (1025 hPa)
ob: LEZL 270800Z 02003KT CAVOK 08/06 Q1025 NOSIG
cycle: 8

Station Type Date Time Source
LEZL TAF 2022/11/27 09:27 UTC NOAA

TAF LEZL 270800Z 2709/2809 04006KT CAVOK TX22/2715Z TN07/2807Z
BECMG 2713/2716 23010KT
BECMG 2720/2722 VRB02KT

Example: see airport list